Time;durP1;ratioP1;P1;durP2;ratioP2;P2;SDS_P1;SDS_P2;PMS_P1;PMS_P2;Temp;Humidity;BMP_temperature;BMP_pressure;BME280_temperature;BME280_humidity;BME280_pressure;Samples;Min_cycle;Max_cycle;Signal;HPM_P1;HPM_P2
2022/07/04 00:00:43;;;;;;;7.53;5.25;;;14.20;99.90;;;;;;5018213;28;20077;-71
2022/07/04 00:03:09;;;;;;;9.15;5.13;;;14.20;99.90;;;;;;5016992;28;20049;-71
2022/07/04 00:05:34;;;;;;;8.10;5.07;;;14.30;99.90;;;;;;5017823;28;20048;-71
2022/07/04 00:08:00;;;;;;;8.65;5.10;;;14.30;99.90;;;;;;5017813;28;20120;-71
2022/07/04 00:10:26;;;;;;;6.55;5.20;;;14.30;99.90;;;;;;5017445;28;20068;-71
2022/07/04 00:12:52;;;;;;;8.40;5.28;;;14.30;99.90;;;;;;5017836;28;20046;-71
2022/07/04 00:15:18;;;;;;;10.02;5.40;;;14.30;99.90;;;;;;5017475;28;20133;-71
2022/07/04 00:17:44;;;;;;;9.10;5.70;;;14.40;99.90;;;;;;5017018;28;20049;-71
2022/07/04 00:20:10;;;;;;;9.30;5.93;;;14.40;99.90;;;;;;5017566;28;20056;-71
2022/07/04 00:22:36;;;;;;;9.63;6.00;;;14.40;99.90;;;;;;5017491;28;20056;-71
2022/07/04 00:25:02;;;;;;;7.82;5.70;;;14.40;99.90;;;;;;5017521;28;20121;-71
2022/07/04 00:27:28;;;;;;;6.82;5.25;;;14.40;99.90;;;;;;5017670;28;20037;-71
2022/07/04 00:29:53;;;;;;;9.18;5.35;;;14.40;99.90;;;;;;5017506;28;20109;-71
2022/07/04 00:32:19;;;;;;;8.35;5.80;;;14.50;99.90;;;;;;5016513;28;20038;-71
2022/07/04 00:34:44;;;;;;;10.32;6.13;;;14.40;99.90;;;;;;5016850;28;20476;-71
2022/07/04 00:37:10;;;;;;;8.98;5.85;;;14.40;99.90;;;;;;5017357;28;20042;-71
2022/07/04 00:39:36;;;;;;;9.30;5.85;;;14.50;99.90;;;;;;5017245;28;20046;-71
2022/07/04 00:42:02;;;;;;;10.00;5.85;;;14.40;99.90;;;;;;5017302;28;20065;-71
2022/07/04 00:44:29;;;;;;;7.97;6.13;;;14.50;99.90;;;;;;5017176;28;20124;-71
2022/07/04 00:46:55;;;;;;;7.75;6.20;;;14.30;99.90;;;;;;5016307;28;20080;-71
2022/07/04 00:49:20;;;;;;;12.02;7.43;;;14.30;99.90;;;;;;5016956;28;20417;-71
2022/07/04 00:51:47;;;;;;;8.50;6.68;;;14.30;99.90;;;;;;5017117;28;20042;-71
2022/07/04 00:54:15;;;;;;;9.35;6.80;;;14.20;99.90;;;;;;5016925;28;20042;-71
2022/07/04 00:56:43;;;;;;;10.73;6.80;;;14.20;99.90;;;;;;5016787;28;20493;-71
2022/07/04 00:59:09;;;;;;;10.93;6.95;;;14.20;99.90;;;;;;5016721;28;20054;-71
2022/07/04 01:01:36;;;;;;;10.40;6.45;;;14.20;99.90;;;;;;5015998;28;20180;-71
2022/07/04 01:04:03;;;;;;;10.32;6.85;;;14.10;99.90;;;;;;5016775;28;20053;-71
2022/07/04 01:06:30;;;;;;;10.93;7.25;;;14.10;99.90;;;;;;5015577;28;20037;-71
2022/07/04 01:08:55;;;;;;;11.13;7.70;;;14.10;99.90;;;;;;5016697;28;20042;-71
2022/07/04 01:11:22;;;;;;;12.15;6.93;;;14.00;99.90;;;;;;5015698;28;20041;-71
2022/07/04 01:13:47;;;;;;;9.02;6.57;;;14.10;99.90;;;;;;5016976;28;20053;-71
2022/07/04 01:16:14;;;;;;;13.40;7.03;;;14.00;99.90;;;;;;5016767;28;20056;-71
2022/07/04 01:18:40;;;;;;;11.57;7.07;;;14.10;99.90;;;;;;4998974;28;20052;-71
2022/07/04 01:21:06;;;;;;;11.57;6.25;;;14.10;99.90;;;;;;5015816;28;20049;-71
2022/07/04 01:23:32;;;;;;;10.05;6.60;;;14.00;99.90;;;;;;5016352;28;20456;-71
2022/07/04 01:25:57;;;;;;;12.25;7.13;;;14.00;99.90;;;;;;5016539;28;20045;-71
2022/07/04 01:28:24;;;;;;;10.63;8.13;;;14.00;99.90;;;;;;5014792;28;20108;-71
2022/07/04 01:30:50;;;;;;;11.32;7.30;;;14.00;99.90;;;;;;5016382;28;20078;-70
2022/07/04 01:33:17;;;;;;;9.18;7.40;;;14.00;99.90;;;;;;5016147;28;20077;-71
2022/07/04 01:35:46;;;;;;;11.27;6.97;;;14.00;99.90;;;;;;5016341;28;20054;-71
2022/07/04 01:38:11;;;;;;;10.02;6.72;;;14.10;99.90;;;;;;5016191;28;20352;-70
2022/07/04 01:40:37;;;;;;;10.15;7.18;;;14.00;99.90;;;;;;5015098;28;20056;-71
2022/07/04 01:43:03;;;;;;;11.45;6.45;;;14.10;99.90;;;;;;5016271;28;20042;-71
2022/07/04 01:45:29;;;;;;;10.00;6.80;;;14.00;99.90;;;;;;5016101;28;20042;-71
2022/07/04 01:47:54;;;;;;;9.60;7.20;;;14.10;99.90;;;;;;5016013;28;20082;-71
2022/07/04 01:50:20;;;;;;;9.45;6.65;;;14.10;99.90;;;;;;5015986;28;20046;-71
2022/07/04 01:52:46;;;;;;;11.15;6.88;;;14.10;99.90;;;;;;5016144;28;20379;-71
2022/07/04 01:55:12;;;;;;;10.23;6.60;;;14.10;99.90;;;;;;5015469;28;20049;-71
2022/07/04 01:57:39;;;;;;;11.05;6.65;;;14.10;99.90;;;;;;5015889;28;20088;-71
2022/07/04 02:02:57;;;;;;;11.95;6.32;;;14.00;99.90;;;;;;5015754;28;20045;-71
2022/07/04 02:05:22;;;;;;;10.70;6.38;;;14.00;99.90;;;;;;5015682;28;20042;-70
2022/07/04 02:07:48;;;;;;;9.43;6.50;;;14.00;99.90;;;;;;5016050;28;20456;-71
2022/07/04 02:10:14;;;;;;;13.18;6.53;;;14.10;99.90;;;;;;5014702;28;20077;-71
2022/07/04 02:15:24;;;;;;;8.50;5.72;;;14.00;99.90;;;;;;5015526;28;20433;-71
2022/07/04 02:17:49;;;;;;;9.20;5.43;;;14.00;99.90;;;;;;5015735;28;20050;-71
2022/07/04 02:20:15;;;;;;;10.68;6.78;;;14.00;99.90;;;;;;5014936;28;20053;-71
2022/07/04 02:22:41;;;;;;;14.48;6.05;;;14.00;99.90;;;;;;5014826;28;20045;-71
2022/07/04 02:25:07;;;;;;;9.38;6.53;;;14.00;99.90;;;;;;5014812;28;20048;-71
2022/07/04 02:27:33;;;;;;;9.20;6.70;;;14.00;99.90;;;;;;5015314;28;20050;-71
2022/07/04 02:29:58;;;;;;;8.73;6.28;;;14.00;99.90;;;;;;5015161;28;20052;-71
2022/07/04 02:32:24;;;;;;;9.75;6.50;;;13.90;99.90;;;;;;5015404;28;20122;-71
2022/07/04 02:34:50;;;;;;;8.65;5.55;;;14.00;99.90;;;;;;5014907;28;20050;-70
2022/07/04 02:37:16;;;;;;;8.02;6.70;;;14.00;99.90;;;;;;5015247;28;20056;-71
2022/07/04 02:39:41;;;;;;;11.15;6.53;;;14.00;99.90;;;;;;5013516;28;20388;-70
2022/07/04 02:42:07;;;;;;;14.65;6.28;;;14.00;99.90;;;;;;5015184;28;20077;-71
2022/07/04 02:44:33;;;;;;;9.20;6.47;;;13.90;99.90;;;;;;5014945;28;20125;-71
2022/07/04 02:47:00;;;;;;;14.77;6.60;;;14.00;99.90;;;;;;5014762;28;20050;-71
2022/07/04 02:49:26;;;;;;;9.73;6.32;;;13.90;99.90;;;;;;5015370;28;20042;-71
2022/07/04 02:51:52;;;;;;;13.30;6.55;;;14.00;99.90;;;;;;5015369;28;20049;-71
2022/07/04 02:54:17;;;;;;;8.07;6.40;;;14.00;99.90;;;;;;5014511;28;20504;-70
2022/07/04 02:56:43;;;;;;;8.32;6.35;;;14.00;99.90;;;;;;5015040;28;20049;-70
2022/07/04 02:59:09;;;;;;;10.68;6.43;;;14.00;99.90;;;;;;5015051;28;20038;-71
2022/07/04 03:01:34;;;;;;;11.50;6.82;;;14.10;99.90;;;;;;4997777;28;20108;-71
2022/07/04 03:04:00;;;;;;;11.23;7.32;;;14.10;99.90;;;;;;5015078;28;20060;-71
2022/07/04 03:06:26;;;;;;;11.43;6.72;;;14.10;99.90;;;;;;5015014;28;20050;-71
2022/07/04 03:08:52;;;;;;;17.67;7.40;;;14.10;99.90;;;;;;5014177;28;20361;-71
2022/07/04 03:11:19;;;;;;;10.75;7.28;;;14.20;99.90;;;;;;5014862;28;20050;-71
2022/07/04 03:13:44;;;;;;;14.10;7.13;;;14.20;99.90;;;;;;5014903;28;20049;-71
2022/07/04 03:16:10;;;;;;;16.35;7.72;;;14.10;99.90;;;;;;5014846;28;20337;-71
2022/07/04 03:18:36;;;;;;;11.07;7.65;;;14.20;99.90;;;;;;5014845;28;20141;-71
2022/07/04 03:21:04;;;;;;;16.63;7.90;;;14.20;99.90;;;;;;5015016;28;20056;-70
2022/07/04 03:23:30;;;;;;;10.90;7.03;;;14.20;99.90;;;;;;5014311;28;20045;-71
2022/07/04 03:25:56;;;;;;;13.88;7.25;;;14.30;99.90;;;;;;5014745;28;20360;-71
2022/07/04 03:28:21;;;;;;;10.95;6.75;;;14.20;99.90;;;;;;5015122;28;20188;-71
2022/07/04 03:30:47;;;;;;;10.20;7.55;;;14.30;99.90;;;;;;5014722;28;20038;-71
2022/07/04 03:33:13;;;;;;;12.77;7.15;;;14.20;99.90;;;;;;5014709;28;20044;-71
2022/07/04 03:35:38;;;;;;;10.48;6.78;;;14.30;99.90;;;;;;5013770;28;20129;-71
2022/07/04 03:38:04;;;;;;;9.63;6.57;;;14.20;99.90;;;;;;5013570;28;20053;-71
2022/07/04 03:40:30;;;;;;;9.60;6.47;;;14.30;99.90;;;;;;4995089;28;20050;-70
2022/07/04 03:42:58;;;;;;;11.40;6.57;;;14.30;99.90;;;;;;4995352;28;20061;-70
2022/07/04 03:45:24;;;;;;;12.57;6.70;;;14.30;99.90;;;;;;4995164;28;20429;-71
2022/07/04 03:47:49;;;;;;;12.30;6.70;;;14.20;99.90;;;;;;4995009;28;20078;-70
2022/07/04 03:50:15;;;;;;;9.07;5.50;;;14.20;99.90;;;;;;4996341;28;20145;-71
2022/07/04 03:52:41;;;;;;;12.20;6.97;;;14.30;99.90;;;;;;4998274;28;20049;-71
2022/07/04 03:55:07;;;;;;;14.05;7.20;;;14.20;99.90;;;;;;5017155;28;20422;-71
2022/07/04 03:57:32;;;;;;;10.95;6.65;;;14.30;99.90;;;;;;5018121;28;20077;-71
2022/07/04 03:59:58;;;;;;;11.50;6.55;;;14.20;99.90;;;;;;5018094;28;20046;-71
2022/07/04 04:02:23;;;;;;;10.35;6.47;;;14.30;99.90;;;;;;5018198;28;20502;-71
2022/07/04 04:07:33;;;;;;;9.37;6.10;;;14.20;99.90;;;;;;5017115;28;20046;-71
2022/07/04 04:09:59;;;;;;;8.90;6.13;;;14.30;99.90;;;;;;5017805;28;20038;-70
2022/07/04 04:12:24;;;;;;;11.60;6.68;;;14.30;99.90;;;;;;5017809;28;20045;-71
2022/07/04 04:14:50;;;;;;;13.73;6.22;;;14.30;99.90;;;;;;5017814;28;20057;-70
2022/07/04 04:17:15;;;;;;;11.52;6.57;;;14.30;99.90;;;;;;4999518;28;20479;-71
2022/07/04 04:19:41;;;;;;;15.20;6.38;;;14.30;99.90;;;;;;5016834;28;20038;-71
2022/07/04 04:22:06;;;;;;;9.20;5.60;;;14.30;99.90;;;;;;5017627;28;20124;-71
2022/07/04 04:24:32;;;;;;;10.55;6.32;;;14.30;99.90;;;;;;5017519;28;20046;-71
2022/07/04 04:26:58;;;;;;;11.98;6.25;;;14.30;99.90;;;;;;5017241;28;20477;-71
2022/07/04 04:29:23;;;;;;;9.15;6.10;;;14.30;99.90;;;;;;5017499;28;20045;-71
2022/07/04 04:31:49;;;;;;;9.88;6.10;;;14.40;99.90;;;;;;5016898;28;20132;-71
2022/07/04 04:34:14;;;;;;;11.65;6.15;;;14.30;99.90;;;;;;5017347;28;20133;-70
2022/07/04 04:36:40;;;;;;;9.98;5.65;;;14.40;99.90;;;;;;5017276;28;20388;-71
2022/07/04 04:39:05;;;;;;;11.70;6.45;;;14.50;99.90;;;;;;5017448;28;20049;-71
2022/07/04 04:41:31;;;;;;;10.25;6.40;;;14.50;99.90;;;;;;5017352;28;20351;-70
2022/07/04 04:43:56;;;;;;;10.07;5.88;;;14.50;99.90;;;;;;5017272;28;20045;-71
2022/07/04 04:46:22;;;;;;;9.18;5.78;;;14.50;99.90;;;;;;5016506;28;20038;-71
2022/07/04 04:48:48;;;;;;;9.88;5.60;;;14.50;99.90;;;;;;5014975;28;20463;-70
2022/07/04 04:51:14;;;;;;;8.55;5.32;;;14.60;99.90;;;;;;5017009;28;20129;-71
2022/07/04 04:53:39;;;;;;;10.52;5.30;;;14.60;99.90;;;;;;5017214;28;20084;-71
2022/07/04 04:56:05;;;;;;;14.55;6.10;;;14.80;99.90;;;;;;5017160;28;20042;-70
2022/07/04 04:58:30;;;;;;;9.07;5.30;;;14.70;99.90;;;;;;5017031;28;20084;-71
2022/07/04 05:00:56;;;;;;;7.28;5.25;;;14.80;99.90;;;;;;5015919;28;20107;-71
2022/07/04 05:03:22;;;;;;;10.60;4.97;;;15.00;99.90;;;;;;5016445;28;20069;-71
2022/07/04 05:05:47;;;;;;;9.80;5.22;;;15.10;99.90;;;;;;5016937;28;20108;-71
2022/07/04 05:08:13;;;;;;;7.30;5.05;;;15.10;99.90;;;;;;5015829;28;20532;-71
2022/07/04 05:10:39;;;;;;;8.43;5.38;;;15.20;99.90;;;;;;5016510;28;20350;-70
2022/07/04 05:13:05;;;;;;;8.95;5.20;;;15.20;99.90;;;;;;5016594;28;20095;-73
2022/07/04 05:15:32;;;;;;;10.68;5.47;;;15.30;99.90;;;;;;4999809;28;20064;-73
2022/07/04 05:17:57;;;;;;;8.38;4.68;;;15.40;99.90;;;;;;5016711;28;20034;-73
2022/07/04 05:20:23;;;;;;;13.07;5.68;;;15.40;99.90;;;;;;4998149;28;20475;-72
2022/07/04 05:22:49;;;;;;;7.28;5.22;;;15.50;99.90;;;;;;5016276;28;20064;-77
2022/07/04 05:25:14;;;;;;;7.43;4.85;;;15.60;99.90;;;;;;5016177;28;20471;-73
2022/07/04 05:27:40;;;;;;;9.75;5.10;;;15.70;99.90;;;;;;5016457;28;20038;-70
2022/07/04 05:30:07;;;;;;;13.55;4.65;;;15.70;99.90;;;;;;5016417;28;20447;-70
2022/07/04 05:32:33;;;;;;;8.07;4.80;;;15.70;99.90;;;;;;4998445;28;20379;-69
2022/07/04 05:34:58;;;;;;;8.75;4.60;;;15.80;99.90;;;;;;5015390;28;20062;-70
2022/07/04 05:37:24;;;;;;;7.28;5.10;;;15.80;99.90;;;;;;5016191;28;20141;-72
2022/07/04 05:39:50;;;;;;;9.02;4.85;;;15.90;99.90;;;;;;5016058;28;20125;-71
2022/07/04 05:42:16;;;;;;;13.30;5.15;;;16.00;99.90;;;;;;5016215;28;20084;-71
2022/07/04 05:44:41;;;;;;;9.32;4.65;;;16.00;99.90;;;;;;5016215;28;20488;-79
2022/07/04 05:47:07;;;;;;;8.43;5.22;;;16.10;99.90;;;;;;5015225;28;20072;-80
2022/07/04 05:49:33;;;;;;;9.85;5.60;;;16.10;99.90;;;;;;5015725;28;20084;-72
2022/07/04 05:51:59;;;;;;;11.57;5.90;;;16.20;99.90;;;;;;5015882;28;20042;-72
2022/07/04 05:54:24;;;;;;;8.90;6.38;;;16.30;99.90;;;;;;5016205;28;20049;-73
2022/07/04 05:56:50;;;;;;;10.57;6.32;;;16.30;99.90;;;;;;5015864;28;20060;-73
2022/07/04 05:59:16;;;;;;;9.48;5.80;;;16.30;99.90;;;;;;5015894;28;20477;-73
2022/07/04 06:01:41;;;;;;;8.85;5.68;;;16.30;99.90;;;;;;5014858;28;20041;-71
2022/07/04 06:04:07;;;;;;;11.90;5.53;;;16.40;99.90;;;;;;5015415;28;20046;-74
2022/07/04 06:06:33;;;;;;;10.43;5.63;;;16.60;99.90;;;;;;5015442;28;20054;-75
2022/07/04 06:09:01;;;;;;;9.07;5.20;;;16.60;99.90;;;;;;5015745;28;20136;-75
2022/07/04 06:11:26;;;;;;;9.27;4.68;;;16.70;99.90;;;;;;4998749;28;20174;-73
2022/07/04 06:13:52;;;;;;;9.23;5.05;;;16.80;99.90;;;;;;5015508;28;20530;-75
2022/07/04 06:16:18;;;;;;;7.32;4.53;;;16.90;99.90;;;;;;5014999;28;20054;-75
2022/07/04 06:18:44;;;;;;;10.85;4.78;;;16.90;99.90;;;;;;5015559;28;20048;-74
2022/07/04 06:21:10;;;;;;;8.15;4.70;;;17.00;99.90;;;;;;5015420;28;20096;-75
2022/07/04 06:23:35;;;;;;;5.93;3.45;;;16.90;99.90;;;;;;5015231;28;20034;-75
2022/07/04 06:26:01;;;;;;;7.47;3.65;;;17.00;99.90;;;;;;5015315;28;20099;-75
2022/07/04 06:28:27;;;;;;;9.57;4.45;;;17.00;99.90;;;;;;4997976;28;20444;-73
2022/07/04 06:30:53;;;;;;;5.75;3.20;;;17.10;99.90;;;;;;5014605;28;20100;-74
2022/07/04 06:33:19;;;;;;;4.20;2.88;;;17.10;99.90;;;;;;5015463;28;20050;-77
2022/07/04 06:35:45;;;;;;;6.55;3.00;;;17.20;99.90;;;;;;5015051;28;20479;-74
2022/07/04 06:38:29;;;;;;;4.95;3.00;;;17.30;99.90;;;;;;5015139;28;20088;-74
2022/07/04 06:40:56;;;;;;;;;;;17.30;99.90;;;;;;5015710;28;20057;-74
2022/07/04 06:43:22;;;;;;;5.80;2.22;;;17.30;99.90;;;;;;5015084;28;19921;-74
2022/07/04 06:45:48;;;;;;;4.30;2.63;;;17.30;99.90;;;;;;5014537;28;20124;-74
2022/07/04 06:48:13;;;;;;;6.20;2.20;;;17.30;99.90;;;;;;5014811;28;20447;-74
2022/07/04 06:50:39;;;;;;;4.28;2.10;;;17.20;99.90;;;;;;5015169;28;20045;-74
2022/07/04 06:53:06;;;;;;;4.20;2.00;;;17.10;99.90;;;;;;5015083;28;20046;-73
2022/07/04 06:55:32;;;;;;;4.80;2.20;;;17.10;99.90;;;;;;5015412;28;20452;-74
2022/07/04 06:57:58;;;;;;;7.10;3.42;;;17.20;99.90;;;;;;5015063;28;20148;-74
2022/07/04 07:00:24;;;;;;;6.38;3.00;;;17.30;99.90;;;;;;5014281;28;20127;-74
2022/07/04 07:02:50;;;;;;;2.80;2.03;;;17.30;99.90;;;;;;5014916;28;20038;-74
2022/07/04 07:05:16;;;;;;;8.55;3.03;;;17.30;99.90;;;;;;5013792;28;20162;-74
2022/07/04 07:07:41;;;;;;;4.95;1.70;;;17.40;99.90;;;;;;5014047;28;20048;-72
2022/07/04 07:10:08;;;;;;;6.03;2.30;;;17.40;99.90;;;;;;5014848;28;20476;-72
2022/07/04 07:12:34;;;;;;;3.72;2.25;;;17.50;99.90;;;;;;5015022;28;20068;-72
2022/07/04 07:15:00;;;;;;;3.75;2.38;;;17.50;99.90;;;;;;4997786;28;20057;-73
2022/07/04 07:17:27;;;;;;;4.00;2.78;;;17.40;99.90;;;;;;5012302;28;20061;-73
2022/07/04 07:19:53;;;;;;;5.45;2.15;;;17.20;99.90;;;;;;5014526;28;20458;-72
2022/07/04 07:22:19;;;;;;;4.47;2.75;;;17.40;99.90;;;;;;5014322;28;20038;-73
2022/07/04 07:24:44;;;;;;;3.85;1.70;;;17.50;99.90;;;;;;5015138;28;20048;-74
2022/07/04 07:27:10;;;;;;;3.55;2.03;;;17.60;99.90;;;;;;5018689;28;20041;-71
2022/07/04 07:29:37;;;;;;;5.72;2.75;;;17.80;99.90;;;;;;5023514;28;20479;-73
2022/07/04 07:32:03;;;;;;;5.13;2.15;;;17.80;99.90;;;;;;5023803;28;20048;-72
2022/07/04 07:34:29;;;;;;;5.38;2.20;;;17.80;99.90;;;;;;5018535;28;20109;-72
2022/07/04 07:36:55;;;;;;;7.07;2.85;;;18.00;99.90;;;;;;5018275;28;20062;-72
2022/07/04 07:39:21;;;;;;;4.07;2.50;;;17.90;99.90;;;;;;5017676;28;20376;-71
2022/07/04 07:41:47;;;;;;;3.80;1.70;;;18.00;99.90;;;;;;5018653;28;20053;-76
2022/07/04 07:44:12;;;;;;;5.35;1.85;;;17.80;99.90;;;;;;5018323;28;20045;-76
2022/07/04 07:46:38;;;;;;;4.45;2.42;;;17.80;99.90;;;;;;5017997;28;20038;-76
2022/07/04 07:49:03;;;;;;;8.07;2.65;;;17.90;99.90;;;;;;5018047;28;20042;-76
2022/07/04 07:51:30;;;;;;;7.18;2.25;;;17.90;99.90;;;;;;5017937;28;20140;-76
2022/07/04 07:53:55;;;;;;;5.32;2.25;;;17.80;99.90;;;;;;5018040;28;20136;-76
2022/07/04 07:56:22;;;;;;;4.65;2.05;;;17.90;99.90;;;;;;5018165;28;20105;-80
2022/07/04 07:58:48;;;;;;;6.55;2.22;;;17.80;99.90;;;;;;5018250;28;20049;-77
2022/07/04 08:01:14;;;;;;;3.20;1.90;;;17.80;99.90;;;;;;5017865;28;20372;-75
2022/07/04 08:06:23;;;;;;;3.45;2.17;;;17.80;99.90;;;;;;5017832;28;20061;-76
2022/07/04 08:08:49;;;;;;;5.35;2.95;;;17.90;99.90;;;;;;5017770;28;20455;-76
2022/07/04 08:11:14;;;;;;;6.07;2.65;;;17.90;99.90;;;;;;5000514;28;20046;-76
2022/07/04 08:13:40;;;;;;;6.85;2.40;;;17.80;99.90;;;;;;5017367;28;20082;-77
2022/07/04 08:16:07;;;;;;;7.65;2.92;;;17.90;99.90;;;;;;4980952;28;20471;-77
2022/07/04 08:18:32;;;;;;;8.48;2.88;;;17.90;99.90;;;;;;4984066;28;20049;-77
2022/07/04 08:20:59;;;;;;;5.47;2.42;;;17.80;99.90;;;;;;5017331;28;20050;-77
2022/07/04 08:23:24;;;;;;;6.72;2.58;;;17.90;99.90;;;;;;5017660;28;20073;-78
2022/07/04 08:25:50;;;;;;;6.43;2.53;;;17.80;99.90;;;;;;5017497;28;20042;-77
2022/07/04 08:28:16;;;;;;;5.10;2.70;;;17.80;99.90;;;;;;5017674;28;20049;-74
2022/07/04 08:30:41;;;;;;;9.95;3.28;;;17.80;99.90;;;;;;5017615;28;20956;-74
2022/07/04 08:33:07;;;;;;;11.05;3.28;;;17.70;99.90;;;;;;5017408;28;20360;-74
2022/07/04 08:35:33;;;;;;;6.50;2.78;;;17.60;99.90;;;;;;5017473;28;20058;-74
2022/07/04 08:37:59;;;;;;;5.93;2.80;;;17.60;99.90;;;;;;5016331;28;20360;-73
2022/07/04 08:40:26;;;;;;;4.53;2.50;;;17.60;99.90;;;;;;5017313;28;20041;-72
2022/07/04 08:42:53;;;;;;;9.07;3.20;;;17.70;99.90;;;;;;5017254;28;20472;-72
2022/07/04 08:45:29;;;;;;;6.80;2.85;;;17.70;99.90;;;;;;5016868;28;20053;-71
2022/07/04 08:48:07;;;;;;;6.25;2.50;;;17.80;99.90;;;;;;5017063;28;20133;-72
2022/07/04 08:50:57;;;;;;;6.07;2.90;;;17.80;99.90;;;;;;5017093;28;20096;-71
2022/07/04 08:53:28;;;;;;;7.45;3.45;;;17.70;99.90;;;;;;5005025;28;20456;-77
2022/07/04 08:58:39;;;;;;;3.45;2.58;;;17.80;99.90;;;;;;5016943;28;20054;-73
2022/07/04 09:01:14;;;;;;;4.45;2.83;;;17.90;99.90;;;;;;5017116;28;20358;-74
2022/07/04 09:03:42;;;;;;;6.10;3.20;;;17.90;99.90;;;;;;5016760;28;20053;-73
2022/07/04 09:06:08;;;;;;;4.55;2.90;;;18.30;99.90;;;;;;4999632;28;20132;-73
2022/07/04 09:08:33;;;;;;;8.70;2.70;;;18.30;99.90;;;;;;5016924;28;20117;-72
2022/07/04 09:11:00;;;;;;;6.32;2.83;;;18.60;99.90;;;;;;5016603;28;20480;-73
2022/07/04 09:13:25;;;;;;;4.75;2.53;;;18.70;99.90;;;;;;5016719;28;20052;-72
2022/07/04 09:15:51;;;;;;;5.45;2.20;;;18.70;99.90;;;;;;5016704;28;20042;-73
2022/07/04 09:18:21;;;;;;;3.42;2.45;;;18.40;99.90;;;;;;4999478;28;20151;-71
2022/07/04 09:20:47;;;;;;;4.10;2.53;;;18.30;99.90;;;;;;5016078;28;20448;-73
2022/07/04 09:23:22;;;;;;;6.30;3.20;;;18.30;99.90;;;;;;5016602;28;20407;-74
2022/07/04 09:26:05;;;;;;;10.07;2.92;;;18.60;99.90;;;;;;5016332;28;20460;-73
2022/07/04 09:28:30;;;;;;;4.32;2.45;;;18.90;99.90;;;;;;5016428;28;20042;-73
2022/07/04 09:30:56;;;;;;;7.55;2.63;;;18.70;99.90;;;;;;5016194;28;20527;-74
2022/07/04 09:33:23;;;;;;;7.20;3.05;;;18.50;99.90;;;;;;5015872;28;20061;-76
2022/07/04 09:35:48;;;;;;;5.38;3.08;;;18.40;99.90;;;;;;5016269;28;20159;-74
2022/07/04 09:38:23;;;;;;;5.47;2.95;;;18.50;99.90;;;;;;5016201;28;20077;-76
2022/07/04 09:43:36;;;;;;;5.13;2.80;;;19.10;99.90;;;;;;5016124;28;20233;-81
2022/07/04 09:46:02;;;;;;;9.23;2.90;;;19.00;99.90;;;;;;4998798;28;20050;-77
2022/07/04 09:48:50;;;;;;;4.35;2.15;;;19.10;99.90;;;;;;5015601;28;20117;-72
2022/07/04 09:51:38;;;;;;;5.18;2.10;;;19.00;99.90;;;;;;5015857;28;20049;-73
2022/07/04 09:54:22;;;;;;;3.10;1.83;;;19.10;99.90;;;;;;5016035;28;20349;-73
2022/07/04 09:56:53;;;;;;;5.55;2.00;;;19.10;99.90;;;;;;5015682;28;20065;-73
2022/07/04 09:59:20;;;;;;;6.72;2.05;;;19.00;99.90;;;;;;5015721;28;20049;-73
2022/07/04 10:01:46;;;;;;;6.78;2.03;;;19.30;99.90;;;;;;5015472;28;20054;-73
2022/07/04 10:04:13;;;;;;;6.35;1.98;;;19.20;99.90;;;;;;5015467;28;20034;-73
2022/07/04 10:06:43;;;;;;;4.80;1.92;;;19.40;99.90;;;;;;5015589;28;20064;-73
2022/07/04 10:09:14;;;;;;;5.57;2.22;;;19.40;99.90;;;;;;5015117;28;20053;-72
2022/07/04 10:11:41;;;;;;;4.22;1.95;;;19.40;99.90;;;;;;4998442;28;20069;-73
2022/07/04 10:14:12;;;;;;;4.25;2.03;;;19.40;99.90;;;;;;5015686;28;20045;-73
2022/07/04 10:16:39;;;;;;;3.60;2.40;;;19.40;99.90;;;;;;5015593;28;20042;-72
2022/07/04 10:19:07;;;;;;;6.53;2.08;;;19.60;99.90;;;;;;5015012;28;20483;-73
2022/07/04 10:21:33;;;;;;;3.78;2.10;;;19.70;99.90;;;;;;5015359;28;20133;-73
2022/07/04 10:24:00;;;;;;;5.20;2.15;;;19.30;99.90;;;;;;5015561;28;20052;-73
2022/07/04 10:26:28;;;;;;;6.50;2.47;;;19.50;99.90;;;;;;5015340;28;20133;-73
2022/07/04 10:28:55;;;;;;;6.47;2.35;;;19.60;99.90;;;;;;5015611;28;20056;-73
2022/07/04 10:31:23;;;;;;;5.70;2.25;;;19.50;99.90;;;;;;5015272;28;20092;-73
2022/07/04 10:33:49;;;;;;;5.65;2.38;;;19.70;99.90;;;;;;5014885;28;20084;-73
2022/07/04 10:36:30;;;;;;;3.95;2.17;;;19.70;99.90;;;;;;5015344;28;20081;-73
2022/07/04 10:39:02;;;;;;;4.32;1.77;;;19.80;99.90;;;;;;5014964;28;20100;-73
2022/07/04 10:41:30;;;;;;;6.05;2.70;;;19.70;99.90;;;;;;5015326;28;20452;-73
2022/07/04 10:44:00;;;;;;;7.47;2.22;;;19.40;99.90;;;;;;5015090;28;20045;-73
2022/07/04 10:46:28;;;;;;;8.15;2.97;;;19.20;99.90;;;;;;5014999;28;20125;-73
2022/07/04 10:49:04;;;;;;;5.82;2.30;;;19.40;99.90;;;;;;5015480;28;20049;-73
2022/07/04 10:51:47;;;;;;;6.07;2.60;;;19.10;99.90;;;;;;5015168;28;20104;-73
2022/07/04 10:54:18;;;;;;;6.00;2.25;;;19.40;99.90;;;;;;5015167;28;20065;-73
2022/07/04 10:56:47;;;;;;;5.70;2.25;;;19.50;99.90;;;;;;5014562;28;20124;-73
2022/07/04 10:59:25;;;;;;;4.75;2.10;;;19.50;99.90;;;;;;5015041;28;20049;-73
2022/07/04 11:01:52;;;;;;;6.65;2.50;;;19.20;99.90;;;;;;5019041;28;20057;-73
2022/07/04 11:04:56;;;;;;;4.78;2.47;;;19.20;99.90;;;;;;5019360;28;20456;-73
2022/07/04 11:07:37;;;;;;;7.75;1.90;;;19.40;99.90;;;;;;5019007;28;20053;-73
2022/07/04 11:10:16;;;;;;;4.55;2.15;;;19.00;99.90;;;;;;5001549;28;20345;-73
2022/07/04 11:12:53;;;;;;;4.35;1.85;;;19.30;99.90;;;;;;5019055;28;20060;-73
2022/07/04 11:15:27;;;;;;;3.92;1.67;;;19.30;99.90;;;;;;5018764;28;20064;-73
2022/07/04 11:17:54;;;;;;;7.35;2.22;;;19.50;99.90;;;;;;5018884;28;20046;-73
2022/07/04 11:20:21;;;;;;;6.38;1.92;;;19.90;99.90;;;;;;5018476;28;20444;-73
2022/07/04 11:22:46;;;;;;;4.85;1.67;;;19.80;99.90;;;;;;5018838;28;20096;-73
2022/07/04 11:25:12;;;;;;;3.20;1.50;;;19.70;99.90;;;;;;5018968;28;20074;-73
2022/07/04 11:27:38;;;;;;;3.85;1.60;;;20.00;99.90;;;;;;5018551;28;20041;-73
2022/07/04 11:30:05;;;;;;;2.42;1.67;;;20.10;99.90;;;;;;5019002;28;20052;-73
2022/07/04 11:32:32;;;;;;;6.03;1.70;;;19.90;99.90;;;;;;5018592;28;20042;-73
2022/07/04 11:34:57;;;;;;;5.22;1.75;;;20.40;99.90;;;;;;5018314;28;20050;-73
2022/07/04 11:37:23;;;;;;;4.85;1.95;;;20.60;99.90;;;;;;5001194;28;20046;-73
2022/07/04 11:39:53;;;;;;;3.97;1.75;;;20.80;99.90;;;;;;5018478;28;20042;-73
2022/07/04 11:45:07;;;;;;;8.35;1.67;;;20.30;99.90;;;;;;5018474;28;20046;-73
2022/07/04 11:47:43;;;;;;;3.60;2.10;;;20.30;99.90;;;;;;5018255;28;20046;-73
2022/07/04 11:50:11;;;;;;;3.58;1.50;;;20.80;99.90;;;;;;5001161;28;20484;-73
2022/07/04 11:52:37;;;;;;;6.75;2.78;;;20.90;99.90;;;;;;5018263;28;20053;-73
2022/07/04 11:55:07;;;;;;;6.03;2.22;;;20.30;99.90;;;;;;5018226;28;20057;-73
2022/07/04 11:57:35;;;;;;;5.22;2.03;;;20.50;99.90;;;;;;5018254;28;20041;-73
2022/07/04 12:00:08;;;;;;;4.88;1.52;;;20.10;99.90;;;;;;5017969;28;20045;-73
2022/07/04 12:02:35;;;;;;;3.40;1.65;;;20.20;99.90;;;;;;5018323;28;20144;-73
2022/07/04 12:05:03;;;;;;;8.07;2.05;;;20.40;99.90;;;;;;5018058;28;20081;-74
2022/07/04 12:07:34;;;;;;;5.95;1.88;;;20.70;99.90;;;;;;5017773;28;20464;-74
2022/07/04 12:10:14;;;;;;;3.10;1.35;;;21.00;99.90;;;;;;5017548;28;20535;-73
2022/07/04 12:12:52;;;;;;;3.28;1.90;;;20.80;99.90;;;;;;5017589;28;20053;-73
2022/07/04 12:15:18;;;;;;;2.63;1.50;;;21.30;99.90;;;;;;5017872;28;20046;-73
2022/07/04 12:17:43;;;;;;;3.80;1.58;;;21.10;99.90;;;;;;5017472;28;20050;-73
2022/07/04 12:20:17;;;;;;;5.45;2.10;;;21.10;99.90;;;;;;5017149;28;20042;-73
2022/07/04 12:22:49;;;;;;;4.03;1.70;;;21.20;99.90;;;;;;5017750;28;20412;-73
2022/07/04 12:25:28;;;;;;;9.18;2.30;;;20.80;99.90;;;;;;5017168;28;20524;-74
2022/07/04 12:28:11;;;;;;;6.13;1.63;;;21.20;99.90;;;;;;5000381;28;20483;-73
2022/07/04 12:30:47;;;;;;;4.07;1.50;;;21.00;99.90;;;;;;5017429;28;20050;-74
2022/07/04 12:33:13;;;;;;;3.90;1.60;;;21.40;99.90;;;;;;5017268;28;20041;-73
2022/07/04 12:35:44;;;;;;;3.45;1.42;;;20.90;99.90;;;;;;5017173;28;20072;-73
2022/07/04 12:38:14;;;;;;;3.15;1.20;;;20.90;99.90;;;;;;5017039;28;20046;-73
2022/07/04 12:40:54;;;;;;;3.15;1.35;;;20.70;99.90;;;;;;5017180;28;20360;-74
2022/07/04 12:43:21;;;;;;;3.70;1.45;;;21.40;99.90;;;;;;5017249;28;20056;-74
2022/07/04 12:45:56;;;;;;;3.70;1.17;;;21.30;99.90;;;;;;5017112;28;20104;-73
2022/07/04 12:48:26;;;;;;;3.63;1.25;;;21.40;99.90;;;;;;5017479;28;20038;-73
2022/07/04 12:50:53;;;;;;;3.70;1.20;;;21.80;99.90;;;;;;5016756;28;20424;-74
2022/07/04 12:53:19;;;;;;;2.88;1.80;;;21.80;99.90;;;;;;5016995;28;20042;-74
2022/07/04 12:55:46;;;;;;;2.83;1.15;;;21.90;99.90;;;;;;5016901;28;20125;-74
2022/07/04 12:58:12;;;;;;;4.15;1.42;;;21.90;99.90;;;;;;5017064;28;20045;-74
2022/07/04 13:00:39;;;;;;;5.30;1.40;;;21.40;99.90;;;;;;5016773;28;20419;-74
2022/07/04 13:03:06;;;;;;;2.50;1.23;;;21.40;99.90;;;;;;5016995;28;20052;-74
2022/07/04 13:05:36;;;;;;;3.92;1.23;;;21.90;99.90;;;;;;5016953;28;20074;-74